createdAt,value
2023-02-20T00:00:53.636Z,15.63
2023-02-20T00:03:21.076Z,17.10
2023-02-20T00:05:48.877Z,16.27
2023-02-20T00:08:16.226Z,16.83
2023-02-20T00:10:43.644Z,14.97
2023-02-20T00:13:11.095Z,16.60
2023-02-20T00:15:38.607Z,18.87
2023-02-20T00:18:07.308Z,18.00
2023-02-20T00:20:36.487Z,15.40
2023-02-20T00:23:04.023Z,20.00
2023-02-20T00:25:31.362Z,17.60
2023-02-20T00:27:59.311Z,21.63
2023-02-20T00:30:27.175Z,16.17
2023-02-20T00:32:56.036Z,16.30
2023-02-20T00:35:24.871Z,14.60
2023-02-20T00:37:53.664Z,15.87
2023-02-20T00:40:23.976Z,15.73
2023-02-20T00:42:51.765Z,17.40
2023-02-20T00:45:19.616Z,18.47
2023-02-20T00:47:47.196Z,17.03
2023-02-20T00:50:16.658Z,15.73
2023-02-20T00:52:44.127Z,17.53
2023-02-20T00:55:12.200Z,20.30
2023-02-20T00:57:39.866Z,16.17
2023-02-20T01:00:11.127Z,15.40
2023-02-20T01:02:38.744Z,15.40
2023-02-20T01:05:06.400Z,19.10
2023-02-20T01:07:33.744Z,16.50
2023-02-20T01:10:01.103Z,17.80
2023-02-20T01:12:28.540Z,16.40
2023-02-20T01:14:55.892Z,16.27
2023-02-20T01:17:23.391Z,16.17
2023-02-20T01:19:50.805Z,15.70
2023-02-20T01:22:18.256Z,15.50
2023-02-20T01:24:45.688Z,18.20
2023-02-20T01:27:13.119Z,17.13
2023-02-20T01:29:40.762Z,16.83
2023-02-20T01:32:11.467Z,15.40
2023-02-20T01:34:39.426Z,16.73
2023-02-20T01:37:07.228Z,14.77
2023-02-20T01:39:34.726Z,14.30
2023-02-20T01:42:05.487Z,16.63
2023-02-20T01:44:35.741Z,17.90
2023-02-20T01:47:07.997Z,16.43
2023-02-20T01:49:43.127Z,17.37
2023-02-20T01:52:20.422Z,17.10
2023-02-20T01:54:57.248Z,13.67
2023-02-20T01:57:28.413Z,12.73
2023-02-20T02:00:00.722Z,15.33
2023-02-20T02:02:33.424Z,15.43
2023-02-20T02:05:02.193Z,17.93
2023-02-20T02:07:30.732Z,14.57
2023-02-20T02:10:04.604Z,16.73
2023-02-20T02:12:32.340Z,14.27
2023-02-20T02:14:59.813Z,17.53
2023-02-20T02:17:59.549Z,17.67
2023-02-20T02:20:39.005Z,17.30
2023-02-20T02:23:18.242Z,16.53
2023-02-20T02:26:14.773Z,16.00
2023-02-20T02:28:57.199Z,14.67
2023-02-20T02:32:01.647Z,16.07
2023-02-20T02:34:56.874Z,16.97
2023-02-20T02:37:43.003Z,14.80
2023-02-20T02:40:49.139Z,15.97
2023-02-20T02:43:16.498Z,14.80
2023-02-20T02:46:15.371Z,16.67
2023-02-20T02:48:51.535Z,16.50
2023-02-20T02:51:26.621Z,16.10
2023-02-20T02:54:13.036Z,16.40
2023-02-20T02:56:45.438Z,14.33
2023-02-20T02:59:21.052Z,15.93
2023-02-20T03:01:54.603Z,16.83
2023-02-20T03:04:30.516Z,15.80
2023-02-20T03:07:04.215Z,16.73
2023-02-20T03:09:36.325Z,17.03
2023-02-20T03:12:06.751Z,14.37
2023-02-20T03:15:25.007Z,17.07
2023-02-20T03:18:16.016Z,14.57
2023-02-20T03:20:48.810Z,17.07
2023-02-20T03:23:32.309Z,14.13
2023-02-20T03:26:22.519Z,13.17
2023-02-20T03:29:28.138Z,18.67
2023-02-20T03:32:19.730Z,14.23
2023-02-20T03:35:07.300Z,17.60
2023-02-20T03:37:56.842Z,14.10
2023-02-20T03:40:44.259Z,15.13
2023-02-20T03:43:28.051Z,14.83
2023-02-20T03:46:12.122Z,15.13
2023-02-20T03:49:00.524Z,15.03
2023-02-20T03:51:47.128Z,15.33
2023-02-20T03:54:14.855Z,12.33
2023-02-20T03:56:46.243Z,14.87
2023-02-20T03:59:31.323Z,19.60
2023-02-20T04:02:04.609Z,16.57
2023-02-20T04:04:52.576Z,15.50
2023-02-20T04:07:28.020Z,14.63
2023-02-20T04:09:59.641Z,16.33
2023-02-20T04:12:31.279Z,13.17
2023-02-20T04:15:00.797Z,15.53
2023-02-20T04:17:32.652Z,18.23
2023-02-20T04:20:00.021Z,17.70
2023-02-20T04:22:32.234Z,16.83
2023-02-20T04:25:03.379Z,16.40
2023-02-20T04:27:32.644Z,15.67
2023-02-20T04:30:00.137Z,14.40
2023-02-20T04:32:27.670Z,15.80
2023-02-20T04:34:55.031Z,17.30
2023-02-20T04:37:22.379Z,14.07
2023-02-20T04:39:49.808Z,17.37
2023-02-20T04:42:17.372Z,16.73
2023-02-20T04:44:44.869Z,21.63
2023-02-20T04:47:16.118Z,14.80
2023-02-20T04:49:44.927Z,16.50
2023-02-20T04:52:12.296Z,15.47
2023-02-20T04:54:39.857Z,17.43
2023-02-20T04:57:07.351Z,17.90
2023-02-20T04:59:34.769Z,17.70
2023-02-20T05:02:02.248Z,18.00
2023-02-20T05:04:29.727Z,17.97
2023-02-20T05:06:58.580Z,15.17
2023-02-20T05:09:26.297Z,14.00
2023-02-20T05:11:54.119Z,15.23
2023-02-20T05:14:22.083Z,18.87
2023-02-20T05:16:51.419Z,13.17
2023-02-20T05:19:19.328Z,17.00
2023-02-20T05:22:05.620Z,11.83
2023-02-20T05:24:33.019Z,13.87
2023-02-20T05:27:00.455Z,13.53
2023-02-20T05:29:27.944Z,12.83
2023-02-20T05:31:55.804Z,14.53
2023-02-20T05:34:25.963Z,17.03
2023-02-20T05:36:54.712Z,13.87
2023-02-20T05:39:22.414Z,16.37
2023-02-20T05:41:49.761Z,14.27
2023-02-20T05:44:17.122Z,14.37
2023-02-20T05:46:44.657Z,15.33
2023-02-20T05:49:12.654Z,13.00
2023-02-20T05:51:40.295Z,14.63
2023-02-20T05:54:07.667Z,15.00
2023-02-20T05:56:35.485Z,12.10
2023-02-20T05:59:03.779Z,12.47
2023-02-20T06:01:32.732Z,13.70
2023-02-20T06:04:03.560Z,15.07
2023-02-20T06:06:39.603Z,13.47
2023-02-20T06:09:11.060Z,16.40
2023-02-20T06:11:39.952Z,15.40
2023-02-20T06:14:08.406Z,14.27
2023-02-20T06:16:36.641Z,14.07
2023-02-20T06:19:05.463Z,14.00
2023-02-20T06:21:36.118Z,16.97
2023-02-20T06:24:03.962Z,13.90
2023-02-20T06:26:31.528Z,15.17
2023-02-20T06:28:59.007Z,12.73
2023-02-20T06:31:28.401Z,15.90
2023-02-20T06:33:56.059Z,14.10
2023-02-20T06:36:30.823Z,14.47
2023-02-20T06:39:00.117Z,12.67
2023-02-20T06:41:27.656Z,12.20
2023-02-20T06:43:55.052Z,13.43
2023-02-20T06:46:23.116Z,17.03
2023-02-20T06:48:53.311Z,14.63
2023-02-20T06:51:22.554Z,12.63
2023-02-20T06:53:50.327Z,14.60
2023-02-20T06:56:22.826Z,17.20
2023-02-20T06:58:52.009Z,12.87
2023-02-20T07:01:21.314Z,16.67
2023-02-20T07:03:50.175Z,16.63
2023-02-20T07:06:18.068Z,21.00
2023-02-20T07:08:45.421Z,20.50
2023-02-20T07:11:13.543Z,19.77
2023-02-20T07:13:41.055Z,16.03
2023-02-20T07:16:08.749Z,12.73
2023-02-20T07:18:36.337Z,13.97
2023-02-20T07:21:04.029Z,15.40
2023-02-20T07:23:31.662Z,15.10
2023-02-20T07:25:59.020Z,19.53
2023-02-20T07:28:26.471Z,19.90
2023-02-20T07:30:53.966Z,15.27
2023-02-20T07:33:21.451Z,15.77
2023-02-20T07:35:48.900Z,18.53
2023-02-20T07:38:16.359Z,22.50
2023-02-20T07:40:43.822Z,26.77
2023-02-20T07:43:11.764Z,22.33
2023-02-20T07:45:39.944Z,24.80
2023-02-20T07:48:07.906Z,21.53
2023-02-20T07:50:35.367Z,20.90
2023-02-20T07:53:03.145Z,20.70
2023-02-20T07:55:31.003Z,22.90
2023-02-20T07:57:59.319Z,23.93
2023-02-20T08:00:28.118Z,21.93
2023-02-20T08:02:55.753Z,27.27
2023-02-20T08:05:23.356Z,23.30
2023-02-20T08:07:51.881Z,22.07
2023-02-20T08:10:23.602Z,20.23
2023-02-20T08:12:52.686Z,23.93
2023-02-20T08:15:22.214Z,25.00
2023-02-20T08:17:52.320Z,25.13
2023-02-20T08:20:21.710Z,27.63
2023-02-20T08:22:50.661Z,24.03
2023-02-20T08:25:19.276Z,27.07
2023-02-20T08:27:49.695Z,24.20
2023-02-20T08:30:24.376Z,24.70
2023-02-20T08:32:53.220Z,21.03
2023-02-20T08:35:27.105Z,24.07
2023-02-20T08:37:55.003Z,24.60
2023-02-20T08:40:22.563Z,30.70
2023-02-20T08:42:50.750Z,20.57
2023-02-20T08:45:18.324Z,25.10
2023-02-20T08:47:45.645Z,25.30
2023-02-20T08:50:13.250Z,30.13
2023-02-20T08:52:43.690Z,27.10
2023-02-20T08:55:12.093Z,26.53
2023-02-20T08:57:42.554Z,25.27
2023-02-20T09:00:10.825Z,26.77
2023-02-20T09:02:38.196Z,26.40
2023-02-20T09:05:05.925Z,26.37
2023-02-20T09:07:35.109Z,27.50
2023-02-20T09:10:02.467Z,28.43
2023-02-20T09:12:31.128Z,27.17
2023-02-20T09:15:00.712Z,22.73
2023-02-20T09:17:29.226Z,31.40
2023-02-20T09:19:56.881Z,26.83
2023-02-20T09:22:25.462Z,26.27
2023-02-20T09:24:54.010Z,26.17
2023-02-20T09:27:21.650Z,25.60
2023-02-20T09:29:49.225Z,27.80
2023-02-20T09:32:17.087Z,24.60
2023-02-20T09:34:45.548Z,24.93
2023-02-20T09:37:13.281Z,29.77
2023-02-20T09:39:41.141Z,23.10
2023-02-20T09:42:36.537Z,23.93
2023-02-20T09:45:12.874Z,24.37
2023-02-20T09:47:58.506Z,24.13
2023-02-20T09:50:49.544Z,21.27
2023-02-20T09:53:38.130Z,23.10
2023-02-20T09:56:11.778Z,22.20
2023-02-20T09:58:53.642Z,20.17
2023-02-20T10:01:23.277Z,16.70
2023-02-20T10:03:57.761Z,17.57
2023-02-20T10:06:32.027Z,17.80
2023-02-20T10:09:01.062Z,17.93
2023-02-20T10:11:58.675Z,15.97
2023-02-20T10:14:46.322Z,12.37
2023-02-20T10:17:21.351Z,13.50
2023-02-20T10:20:10.952Z,15.33
2023-02-20T10:23:02.772Z,11.17
2023-02-20T10:25:35.117Z,14.20
2023-02-20T10:28:07.964Z,14.33
2023-02-20T10:30:38.417Z,14.53
2023-02-20T10:33:32.316Z,14.03
2023-02-20T10:36:31.118Z,12.07
2023-02-20T10:39:07.356Z,11.87
2023-02-20T10:42:09.393Z,12.13
2023-02-20T10:44:52.153Z,16.03
2023-02-20T10:47:44.973Z,12.03
2023-02-20T10:50:22.770Z,14.47
2023-02-20T10:53:14.539Z,10.03
2023-02-20T10:55:55.609Z,9.63
2023-02-20T10:58:36.555Z,15.33
2023-02-20T11:01:11.172Z,14.30
2023-02-20T11:03:47.644Z,10.10
2023-02-20T11:06:20.337Z,10.40
2023-02-20T11:08:47.847Z,13.00
2023-02-20T11:11:28.112Z,12.37
2023-02-20T11:13:55.600Z,12.13
2023-02-20T11:16:51.761Z,11.83
2023-02-20T11:19:41.745Z,11.00
2023-02-20T11:22:10.052Z,12.50
2023-02-20T11:24:38.851Z,12.40
2023-02-20T11:27:24.619Z,11.63
2023-02-20T11:30:16.616Z,9.67
2023-02-20T11:32:45.184Z,8.43
2023-02-20T11:35:18.945Z,13.17
2023-02-20T11:37:55.203Z,13.87
2023-02-20T11:40:32.364Z,13.63
2023-02-20T11:43:20.795Z,15.90
2023-02-20T11:45:48.397Z,13.40
2023-02-20T11:48:21.001Z,11.60
2023-02-20T11:50:48.632Z,13.30
2023-02-20T11:53:27.213Z,13.43
2023-02-20T11:56:16.236Z,18.47
2023-02-20T11:58:45.344Z,12.20
2023-02-20T12:01:34.581Z,11.83
2023-02-20T12:04:02.122Z,18.20
2023-02-20T12:06:41.716Z,12.53
2023-02-20T12:09:19.114Z,12.20
2023-02-20T12:11:47.484Z,13.93
2023-02-20T12:14:15.828Z,12.93
2023-02-20T12:17:01.217Z,14.87
2023-02-20T12:19:44.501Z,12.97
2023-02-20T12:22:30.811Z,9.33
2023-02-20T12:25:16.929Z,8.17
2023-02-20T12:28:29.688Z,11.30
2023-02-20T12:31:30.333Z,13.37
2023-02-20T12:34:04.743Z,12.67
2023-02-20T12:36:36.046Z,11.93
2023-02-20T12:39:37.131Z,12.97
2023-02-20T12:42:22.526Z,12.73
2023-02-20T12:45:20.047Z,11.40
2023-02-20T12:47:51.303Z,12.63
2023-02-20T12:50:45.381Z,12.73
2023-02-20T12:53:15.573Z,12.40
2023-02-20T12:56:08.108Z,8.63
2023-02-20T12:58:58.210Z,14.53
2023-02-20T13:01:38.906Z,14.03
2023-02-20T13:04:55.165Z,11.77
2023-02-20T13:07:26.495Z,13.73
2023-02-20T13:10:00.043Z,12.63
2023-02-20T13:12:27.719Z,12.03
2023-02-20T13:15:10.082Z,6.60
2023-02-20T13:17:55.396Z,8.13
2023-02-20T13:20:28.675Z,11.13
2023-02-20T13:23:05.300Z,14.67
2023-02-20T13:25:42.543Z,8.67
2023-02-20T13:28:13.075Z,12.50
2023-02-20T13:30:41.478Z,13.17
2023-02-20T13:33:23.246Z,11.20
2023-02-20T13:35:56.922Z,7.33
2023-02-20T13:38:27.159Z,10.77
2023-02-20T13:40:59.029Z,9.67
2023-02-20T13:43:29.589Z,7.23
2023-02-20T13:46:17.928Z,10.10
2023-02-20T13:48:48.058Z,11.10
2023-02-20T13:51:15.749Z,10.17
2023-02-20T13:53:45.857Z,11.07
2023-02-20T13:56:21.566Z,8.77
2023-02-20T13:58:50.796Z,10.23
2023-02-20T14:01:18.463Z,13.33
2023-02-20T14:03:46.002Z,9.60
2023-02-20T14:06:19.325Z,8.17
2023-02-20T14:08:49.225Z,8.23
2023-02-20T14:11:33.867Z,6.93
2023-02-20T14:14:19.946Z,6.40
2023-02-20T14:16:47.350Z,9.63
2023-02-20T14:19:28.087Z,8.50
2023-02-20T14:21:55.709Z,8.33
2023-02-20T14:24:27.230Z,6.73
2023-02-20T14:26:59.618Z,6.13
2023-02-20T14:29:31.925Z,9.17
2023-02-20T14:32:01.678Z,8.63
2023-02-20T14:34:37.881Z,6.67
2023-02-20T14:37:08.028Z,5.87
2023-02-20T14:39:44.530Z,6.63
2023-02-20T14:42:18.848Z,6.50
2023-02-20T14:45:08.251Z,4.90
2023-02-20T14:47:38.329Z,7.90
2023-02-20T14:50:38.939Z,7.83
2023-02-20T14:53:20.946Z,3.33
2023-02-20T14:55:51.676Z,6.10
2023-02-20T14:58:23.542Z,6.87
2023-02-20T15:00:53.627Z,8.33
2023-02-20T15:03:31.432Z,1.37
2023-02-20T15:06:04.425Z,6.23
2023-02-20T15:08:38.017Z,7.83
2023-02-20T15:11:12.175Z,8.83
2023-02-20T15:13:43.524Z,8.90
2023-02-20T15:16:26.548Z,7.27
2023-02-20T15:18:54.990Z,8.97
2023-02-20T15:21:35.749Z,9.17
2023-02-20T15:24:30.920Z,7.63
2023-02-20T15:27:19.643Z,8.97
2023-02-20T15:29:47.647Z,9.47
2023-02-20T15:32:17.829Z,7.73
2023-02-20T15:34:49.425Z,8.33
2023-02-20T15:37:38.094Z,5.47
2023-02-20T15:40:37.203Z,9.33
2023-02-20T15:43:24.024Z,3.23
2023-02-20T15:45:57.818Z,7.63
2023-02-20T15:48:25.292Z,9.17
2023-02-20T15:50:53.478Z,5.93
2023-02-20T15:53:28.468Z,8.70
2023-02-20T15:55:57.373Z,6.97
2023-02-20T15:58:33.539Z,2.80
2023-02-20T16:01:03.050Z,5.60
2023-02-20T16:03:41.778Z,8.70
2023-02-20T16:06:20.001Z,8.00
2023-02-20T16:08:48.037Z,7.30
2023-02-20T16:11:15.686Z,8.70
2023-02-20T16:13:46.590Z,5.30
2023-02-20T16:16:24.397Z,6.17
2023-02-20T16:18:55.980Z,9.90
2023-02-20T16:21:24.560Z,9.30
2023-02-20T16:23:52.727Z,7.50
2023-02-20T16:26:25.620Z,6.73
2023-02-20T16:28:58.367Z,9.33
2023-02-20T16:31:53.778Z,10.83
2023-02-20T16:34:25.716Z,7.83
2023-02-20T16:36:53.834Z,2.60
2023-02-20T16:39:26.874Z,7.10
2023-02-20T16:42:00.429Z,11.97
2023-02-20T16:44:39.313Z,9.03
2023-02-20T16:47:13.809Z,6.47
2023-02-20T16:49:41.183Z,5.03
2023-02-20T16:52:24.368Z,6.93
2023-02-20T16:54:51.804Z,3.80
2023-02-20T16:57:23.687Z,9.13
2023-02-20T17:00:01.306Z,9.33
2023-02-20T17:02:32.493Z,7.57
2023-02-20T17:05:01.142Z,4.97
2023-02-20T17:07:30.454Z,5.63
2023-02-20T17:09:58.161Z,7.00
2023-02-20T17:12:26.257Z,7.00
2023-02-20T17:14:54.295Z,8.07
2023-02-20T17:17:22.276Z,9.77
2023-02-20T17:19:53.281Z,8.93
2023-02-20T17:22:21.734Z,10.30
2023-02-20T17:24:49.158Z,10.13
2023-02-20T17:27:17.018Z,9.00
2023-02-20T17:29:46.206Z,10.47
2023-02-20T17:32:14.960Z,14.13
2023-02-20T17:34:42.995Z,5.97
2023-02-20T17:37:11.051Z,7.53
2023-02-20T17:39:39.281Z,11.33
2023-02-20T17:42:07.193Z,7.77
2023-02-20T17:44:35.050Z,7.27
2023-02-20T17:47:02.538Z,6.33
2023-02-20T17:49:31.030Z,12.33
2023-02-20T17:51:59.365Z,8.33
2023-02-20T17:54:29.180Z,11.17
2023-02-20T17:56:56.742Z,12.23
2023-02-20T17:59:24.812Z,10.70
2023-02-20T18:01:52.286Z,3.40
2023-02-20T18:04:21.309Z,11.63
2023-02-20T18:06:49.564Z,9.47
2023-02-20T18:09:18.603Z,10.57
2023-02-20T18:11:46.582Z,9.97
2023-02-20T18:14:14.499Z,10.10
2023-02-20T18:16:42.521Z,6.13
2023-02-20T18:19:13.892Z,10.63
2023-02-20T18:21:43.120Z,7.80
2023-02-20T18:24:11.152Z,8.33
2023-02-20T18:26:38.982Z,11.40
2023-02-20T18:29:06.475Z,6.77
2023-02-20T18:31:34.644Z,14.73
2023-02-20T18:34:02.739Z,6.70
2023-02-20T18:36:30.235Z,10.77
2023-02-20T18:38:57.988Z,12.57
2023-02-20T18:41:25.722Z,10.60
2023-02-20T18:43:53.593Z,7.63
2023-02-20T18:46:35.823Z,9.13
2023-02-20T18:49:04.223Z,9.17
2023-02-20T18:51:36.967Z,7.43
2023-02-20T18:54:05.939Z,9.13
2023-02-20T18:56:33.586Z,11.17
2023-02-20T18:59:02.651Z,12.07
2023-02-20T19:01:29.998Z,10.17
2023-02-20T19:03:57.629Z,10.37
2023-02-20T19:06:26.721Z,7.90
2023-02-20T19:08:54.668Z,11.07
2023-02-20T19:11:22.616Z,9.60
2023-02-20T19:13:49.957Z,11.77
2023-02-20T19:16:17.669Z,13.17
2023-02-20T19:18:50.405Z,9.30
2023-02-20T19:21:19.349Z,10.83
2023-02-20T19:23:47.988Z,10.40
2023-02-20T19:26:15.899Z,10.93
2023-02-20T19:28:43.538Z,8.97
2023-02-20T19:31:12.677Z,10.77
2023-02-20T19:33:41.142Z,10.07
2023-02-20T19:36:10.403Z,7.03
2023-02-20T19:38:39.387Z,10.07
2023-02-20T19:41:06.939Z,9.03
2023-02-20T19:43:34.692Z,11.40
2023-02-20T19:46:02.113Z,12.23
2023-02-20T19:48:29.637Z,9.70
2023-02-20T19:50:57.084Z,8.73
2023-02-20T19:53:24.677Z,14.23
2023-02-20T19:55:54.657Z,8.03
2023-02-20T19:58:22.520Z,10.30
2023-02-20T20:00:49.928Z,12.53
2023-02-20T20:03:18.266Z,9.80
2023-02-20T20:05:46.228Z,10.57
2023-02-20T20:08:13.867Z,11.93
2023-02-20T20:10:41.154Z,12.77
2023-02-20T20:13:09.237Z,5.00
2023-02-20T20:15:37.190Z,11.33
2023-02-20T20:18:04.955Z,12.87
2023-02-20T20:20:33.196Z,11.67
2023-02-20T20:23:05.125Z,14.43
2023-02-20T20:25:33.212Z,13.17
2023-02-20T20:28:02.869Z,17.53
2023-02-20T20:30:32.165Z,19.27
2023-02-20T20:33:00.430Z,16.90
2023-02-20T20:35:29.625Z,22.50
2023-02-20T20:37:57.937Z,18.27
2023-02-20T20:40:26.403Z,17.57
2023-02-20T20:42:54.111Z,19.23
2023-02-20T20:45:23.117Z,20.50
2023-02-20T20:47:50.862Z,18.37
2023-02-20T20:50:23.820Z,17.13
2023-02-20T20:52:51.230Z,18.63
2023-02-20T20:55:18.592Z,18.70
2023-02-20T20:57:45.979Z,23.07
2023-02-20T21:00:23.019Z,17.10
2023-02-20T21:02:50.682Z,19.67
2023-02-20T21:05:20.194Z,22.70
2023-02-20T21:07:48.075Z,20.83
2023-02-20T21:10:15.686Z,19.93
2023-02-20T21:12:43.248Z,20.80
2023-02-20T21:15:11.972Z,25.03
2023-02-20T21:17:41.190Z,26.53
2023-02-20T21:20:14.725Z,20.80
2023-02-20T21:22:42.597Z,22.13
2023-02-20T21:25:10.218Z,21.30
2023-02-20T21:27:37.748Z,23.23
2023-02-20T21:30:06.602Z,24.03
2023-02-20T21:32:34.096Z,21.80
2023-02-20T21:35:01.534Z,25.57
2023-02-20T21:37:28.944Z,25.33
2023-02-20T21:39:56.418Z,25.87
2023-02-20T21:42:42.837Z,21.17
2023-02-20T21:45:10.481Z,23.70
2023-02-20T21:47:37.886Z,26.97
2023-02-20T21:50:07.528Z,24.47
2023-02-20T21:52:38.066Z,26.27
2023-02-20T21:55:12.014Z,23.93
2023-02-20T21:57:39.406Z,23.63
2023-02-20T22:00:09.539Z,20.97
2023-02-20T22:02:36.962Z,21.03
2023-02-20T22:05:05.010Z,25.73
2023-02-20T22:07:51.172Z,24.80
2023-02-20T22:10:37.318Z,22.47
2023-02-20T22:13:23.863Z,22.37
2023-02-20T22:16:10.181Z,23.70
2023-02-20T22:18:56.149Z,19.53
2023-02-20T22:21:43.896Z,23.23
2023-02-20T22:24:38.163Z,28.97
2023-02-20T22:27:29.346Z,19.00
2023-02-20T22:30:15.877Z,23.17
2023-02-20T22:33:01.948Z,18.53
2023-02-20T22:35:48.463Z,21.80
2023-02-20T22:38:34.526Z,19.83
2023-02-20T22:41:20.532Z,22.00
2023-02-20T22:44:06.430Z,20.53
2023-02-20T22:46:52.681Z,22.03
2023-02-20T22:49:39.341Z,18.27
2023-02-20T22:52:25.539Z,22.17
2023-02-20T22:55:11.712Z,20.27
2023-02-20T22:57:57.890Z,16.17
2023-02-20T23:00:43.905Z,22.13
2023-02-20T23:03:30.208Z,20.77
2023-02-20T23:06:19.035Z,18.80
2023-02-20T23:09:09.677Z,16.47
2023-02-20T23:11:57.022Z,24.63
2023-02-20T23:14:43.325Z,19.07
2023-02-20T23:17:36.237Z,18.47
2023-02-20T23:20:31.134Z,16.83
2023-02-20T23:23:17.424Z,22.53
2023-02-20T23:26:03.482Z,21.73
2023-02-20T23:28:49.914Z,19.67
2023-02-20T23:31:36.746Z,22.17
2023-02-20T23:34:23.324Z,19.73
2023-02-20T23:37:10.824Z,22.53
2023-02-20T23:39:57.235Z,23.87
2023-02-20T23:42:43.327Z,19.13
2023-02-20T23:45:29.464Z,21.27
2023-02-20T23:48:15.443Z,18.33
2023-02-20T23:51:01.487Z,21.30
2023-02-20T23:53:47.910Z,21.73
2023-02-20T23:56:33.995Z,13.27
2023-02-20T23:59:20.096Z,25.70
